Time;durP1;ratioP1;P1;durP2;ratioP2;P2;SDS_P1;SDS_P2;PMS_P1;PMS_P2;Temp;Humidity;BMP_temperature;BMP_pressure;BME280_temperature;BME280_humidity;BME280_pressure;Samples;Min_cycle;Max_cycle;Signal;HPM_P1;HPM_P2
2022/11/21 00:00:16;;;;;;;51.47;22.13;;;;;;;0.13;73.84;97726.78;5048069;28;20033;-72
2022/11/21 00:02:41;;;;;;;50.72;22.15;;;;;;;0.13;74.35;97729.47;5048515;28;20040;-72
2022/11/21 00:05:07;;;;;;;47.97;21.13;;;;;;;0.12;73.80;97733.22;5050228;28;20028;-72
2022/11/21 00:07:32;;;;;;;47.58;20.65;;;;;;;0.11;74.36;97724.31;5048964;28;20021;-72
2022/11/21 00:09:58;;;;;;;47.60;21.35;;;;;;;0.11;73.78;97731.59;5050372;28;20048;-71
2022/11/21 00:12:23;;;;;;;47.92;22.50;;;;;;;0.11;74.42;97727.00;5047628;28;20531;-72
2022/11/21 00:14:49;;;;;;;49.55;21.52;;;;;;;0.13;74.06;97730.28;5049084;28;20021;-72
2022/11/21 00:17:15;;;;;;;43.25;20.13;;;;;;;0.14;73.83;97731.09;5050247;28;20064;-71
2022/11/21 00:19:40;;;;;;;47.90;20.50;;;;;;;0.15;73.99;97743.53;5050044;28;20491;-72
2022/11/21 00:22:05;;;;;;;47.05;20.63;;;;;;;0.14;73.42;97728.41;5050008;28;20539;-72
2022/11/21 00:24:31;;;;;;;43.70;19.70;;;;;;;0.14;73.96;97725.72;5050038;28;20396;-72
2022/11/21 00:26:56;;;;;;;44.22;19.42;;;;;;;0.11;73.86;97731.59;5050256;28;20028;-71
2022/11/21 00:29:21;;;;;;;46.22;20.17;;;;;;;0.09;73.78;97712.16;5050292;28;20033;-73
2022/11/21 00:31:47;;;;;;;43.67;19.63;;;;;;;0.08;73.57;97710.53;5049608;28;20037;-73
2022/11/21 00:34:12;;;;;;;46.55;20.52;;;;;;;0.08;74.37;97716.72;5048836;28;20032;-72
2022/11/21 00:36:37;;;;;;;45.30;22.08;;;;;;;0.08;73.79;97714.00;5049653;28;20025;-72
2022/11/21 00:39:03;;;;;;;53.53;24.58;;;;;;;0.06;74.35;97718.84;5049872;28;20642;-72
2022/11/21 00:41:28;;;;;;;54.35;23.55;;;;;;;0.04;74.04;97710.19;5050408;28;20099;-72
2022/11/21 00:43:53;;;;;;;52.80;24.20;;;;;;;0.04;74.47;97712.06;5049599;28;20390;-72
2022/11/21 00:46:19;;;;;;;53.92;25.90;;;;;;;0.04;73.69;97709.38;5049004;28;20075;-71
2022/11/21 00:48:44;;;;;;;48.22;23.40;;;;;;;0.03;73.94;97705.03;5049373;28;20039;-72
2022/11/21 00:51:10;;;;;;;49.15;23.80;;;;;;;0.03;74.06;97705.84;5048735;28;20059;-72
2022/11/21 00:53:35;;;;;;;46.70;22.60;;;;;;;0.03;73.99;97703.16;5049502;28;20062;-72
2022/11/21 00:56:00;;;;;;;49.65;23.50;;;;;;;0.02;74.69;97706.09;5049080;28;20025;-72
2022/11/21 00:58:26;;;;;;;46.30;22.10;;;;;;;0.03;74.07;97692.38;5049443;28;20035;-72
2022/11/21 01:00:52;;;;;;;44.20;20.50;;;;;;;0.03;73.99;97694.25;5049071;28;20086;-72
2022/11/21 01:03:17;;;;;;;45.22;21.38;;;;;;;0.04;74.24;97685.09;5049410;28;20033;-72
2022/11/21 01:05:43;;;;;;;48.22;22.70;;;;;;;0.05;73.86;97692.13;5048239;28;20025;-72
2022/11/21 01:08:08;;;;;;;43.72;21.70;;;;;;;0.04;73.87;97677.03;5048567;28;20025;-72
2022/11/21 01:10:34;;;;;;;51.33;23.20;;;;;;;0.03;74.00;97667.31;5047017;28;20389;-73
2022/11/21 01:13:00;;;;;;;43.40;21.63;;;;;;;-0.01;73.74;97654.31;5049673;28;20029;-73
2022/11/21 01:15:25;;;;;;;46.25;22.20;;;;;;;-0.01;73.86;97657.00;5047085;28;20024;-72
2022/11/21 01:17:51;;;;;;;47.72;22.42;;;;;;;-0.01;73.59;97658.91;5047087;28;20041;-72
2022/11/21 01:20:16;;;;;;;47.17;22.20;;;;;;;-0.05;74.32;97658.56;5047118;28;20170;-73
2022/11/21 01:22:42;;;;;;;43.88;21.00;;;;;;;-0.06;74.01;97653.44;5048496;28;20419;-73
2022/11/21 01:25:08;;;;;;;44.53;21.38;;;;;;;-0.10;74.03;97657.69;5048391;28;20025;-72
2022/11/21 01:27:33;;;;;;;48.90;22.90;;;;;;;-0.15;73.92;97655.72;5048215;28;20033;-73
2022/11/21 01:29:59;;;;;;;46.72;23.63;;;;;;;-0.16;73.61;97654.06;5048071;28;20036;-73
2022/11/21 01:32:24;;;;;;;45.47;21.58;;;;;;;-0.17;73.86;97657.81;5048725;28;20702;-72
2022/11/21 01:34:49;;;;;;;42.25;22.60;;;;;;;-0.20;74.15;97663.72;5048547;28;20029;-73
2022/11/21 01:37:15;;;;;;;48.38;24.95;;;;;;;-0.20;73.80;97661.00;5047849;28;20116;-72
2022/11/21 01:39:40;;;;;;;47.03;21.42;;;;;;;-0.18;73.73;97658.88;5049001;28;20029;-73
2022/11/21 01:42:05;;;;;;;45.72;19.63;;;;;;;-0.18;74.16;97658.88;5049132;28;20024;-73
2022/11/21 01:44:47;;;;;;;41.03;19.88;;;;;;;-0.20;74.12;97647.53;5049586;28;20495;-72
2022/11/21 01:47:13;;;;;;;41.17;19.45;;;;;;;-0.19;74.01;97652.69;5048938;28;20047;-72
2022/11/21 01:49:39;;;;;;;40.75;17.92;;;;;;;-0.19;74.24;97649.16;5047869;28;20049;-72
2022/11/21 01:52:18;;;;;;;41.90;18.50;;;;;;;-0.21;74.28;97649.44;5045187;28;20044;-71
2022/11/21 01:54:55;;;;;;;40.13;19.35;;;;;;;-0.21;73.75;97646.72;5046511;28;20032;-71
2022/11/21 01:57:35;;;;;;;40.65;18.30;;;;;;;-0.24;73.86;97643.72;5046944;28;20021;-72
2022/11/21 02:00:04;;;;;;;;;;;;;;;-0.24;74.14;97649.13;5048653;28;20074;-71
2022/11/21 02:02:35;;;;;;;36.25;17.73;;;;;;;-0.27;74.01;97634.25;5047725;28;19916;-72
2022/11/21 02:05:04;;;;;;;39.90;18.15;;;;;;;-0.29;73.82;97647.16;5047280;28;20067;-72
2022/11/21 02:07:33;;;;;;;42.45;19.40;;;;;;;-0.31;74.32;97642.00;5048271;28;20028;-72
2022/11/21 02:10:00;;;;;;;44.97;20.20;;;;;;;-0.31;73.87;97639.31;5047942;28;20025;-72
2022/11/21 02:12:50;;;;;;;49.95;23.48;;;;;;;-0.32;74.07;97635.00;5048067;28;20444;-72
2022/11/21 02:15:22;;;;;;;41.90;20.20;;;;;;;-0.29;74.68;97630.97;5045454;28;20037;-71
2022/11/21 02:17:49;;;;;;;38.30;18.08;;;;;;;-0.26;74.74;97629.69;5046487;28;20020;-72
2022/11/21 02:20:20;;;;;;;40.40;20.25;;;;;;;-0.25;74.50;97632.13;5048009;28;20476;-71
2022/11/21 02:23:13;;;;;;;39.80;19.15;;;;;;;-0.24;74.24;97630.25;5047921;28;20013;-72
2022/11/21 02:25:41;;;;;;;37.90;18.05;;;;;;;-0.25;74.19;97629.44;5048004;28;20055;-72
2022/11/21 02:28:19;;;;;;;38.00;17.45;;;;;;;-0.26;74.04;97627.78;5047733;28;20036;-72
2022/11/21 02:30:44;;;;;;;34.97;16.20;;;;;;;-0.25;74.57;97623.22;5046381;28;20029;-72
2022/11/21 02:33:11;;;;;;;32.95;15.38;;;;;;;-0.26;74.68;97627.00;5047843;28;20032;-72
2022/11/21 02:35:37;;;;;;;33.70;16.40;;;;;;;-0.25;74.27;97620.53;5047747;28;20040;-71
2022/11/21 02:38:07;;;;;;;34.05;15.75;;;;;;;-0.23;74.36;97618.41;5051453;28;20387;-72
2022/11/21 02:40:36;;;;;;;31.05;14.07;;;;;;;-0.19;74.66;97624.91;5051444;28;20025;-71
2022/11/21 02:43:23;;;;;;;28.65;14.15;;;;;;;-0.18;74.56;97618.47;5051489;28;20033;-71
2022/11/21 02:45:49;;;;;;;30.48;13.43;;;;;;;-0.17;74.30;97615.53;5051073;28;20094;-72
2022/11/21 02:48:14;;;;;;;29.88;13.18;;;;;;;-0.14;74.77;97616.09;5051245;28;20449;-72
2022/11/21 02:50:44;;;;;;;28.10;13.85;;;;;;;-0.13;74.58;97617.75;5050201;28;20067;-71
2022/11/21 02:53:12;;;;;;;26.67;12.57;;;;;;;-0.12;74.45;97617.47;5051070;28;20021;-71
2022/11/21 02:55:38;;;;;;;28.33;13.73;;;;;;;-0.10;74.74;97612.66;5051311;28;20029;-72
2022/11/21 02:58:04;;;;;;;29.27;13.50;;;;;;;-0.07;74.18;97612.16;5051163;28;20021;-72
2022/11/21 03:00:30;;;;;;;28.88;13.35;;;;;;;-0.04;74.38;97606.28;5051048;28;20035;-72
2022/11/21 03:02:56;;;;;;;28.23;12.48;;;;;;;-0.04;74.70;97592.81;5049640;28;20013;-72
2022/11/21 03:05:21;;;;;;;25.40;12.43;;;;;;;-0.01;74.04;97586.13;5051164;28;20025;-72
2022/11/21 03:07:48;;;;;;;29.13;14.05;;;;;;;-0.02;74.28;97582.59;5051229;28;20020;-72
2022/11/21 03:10:14;;;;;;;32.42;14.20;;;;;;;-0.04;73.98;97582.03;5050700;28;20025;-72
2022/11/21 03:12:41;;;;;;;27.73;14.32;;;;;;;-0.04;74.09;97592.00;5050884;28;20017;-72
2022/11/21 03:15:09;;;;;;;27.48;13.55;;;;;;;-0.03;74.23;97588.25;5051337;28;20028;-72
2022/11/21 03:17:35;;;;;;;24.98;12.80;;;;;;;-0.01;74.27;97583.41;5051017;28;20485;-72
2022/11/21 03:20:00;;;;;;;27.65;15.02;;;;;;;0.01;74.19;97583.97;5049061;28;20032;-71
2022/11/21 03:22:26;;;;;;;31.33;15.25;;;;;;;0.03;74.11;97589.13;5050888;28;20089;-72
2022/11/21 03:24:51;;;;;;;33.83;16.90;;;;;;;0.02;74.27;97588.28;5049450;28;20051;-71
2022/11/21 03:27:17;;;;;;;35.67;19.15;;;;;;;0.03;74.18;97592.59;5030393;28;20129;-72
2022/11/21 03:29:42;;;;;;;34.65;17.63;;;;;;;0.03;73.98;97584.53;5047011;28;20063;-71
2022/11/21 03:32:08;;;;;;;34.88;16.80;;;;;;;0.01;74.16;97580.47;5048361;28;20099;-71
2022/11/21 03:34:33;;;;;;;34.05;17.05;;;;;;;0.02;73.56;97576.69;5050601;28;20017;-71
2022/11/21 03:36:59;;;;;;;34.53;16.33;;;;;;;-0.01;73.65;97581.53;5050130;28;20028;-71
2022/11/21 03:39:24;;;;;;;37.58;18.23;;;;;;;-0.03;73.70;97570.16;5050370;28;20191;-71
2022/11/21 03:41:49;;;;;;;39.03;18.13;;;;;;;-0.03;73.45;97577.47;5050019;28;20025;-71
2022/11/21 03:44:15;;;;;;;38.17;18.15;;;;;;;-0.06;73.79;97576.06;5049560;28;20555;-71
2022/11/21 03:46:43;;;;;;;36.67;18.27;;;;;;;-0.07;73.58;97574.44;5050037;28;20017;-71
2022/11/21 03:49:09;;;;;;;41.97;19.65;;;;;;;-0.09;73.70;97571.16;5049942;28;20452;-71
2022/11/21 03:51:35;;;;;;;40.25;18.67;;;;;;;-0.10;73.63;97566.03;5049284;28;20032;-71
2022/11/21 03:54:01;;;;;;;47.60;22.40;;;;;;;-0.12;73.59;97560.88;5049688;28;20026;-71
2022/11/21 03:56:27;;;;;;;41.53;18.35;;;;;;;-0.11;73.92;97559.81;5049711;28;20056;-71
2022/11/21 03:58:53;;;;;;;38.38;18.48;;;;;;;-0.10;73.51;97564.13;5050168;28;20381;-71
2022/11/21 04:01:19;;;;;;;37.33;19.70;;;;;;;-0.08;73.73;97556.63;5049890;28;20037;-71
2022/11/21 04:03:45;;;;;;;37.40;19.02;;;;;;;-0.02;73.68;97557.53;5050522;28;20028;-71
2022/11/21 04:06:12;;;;;;;37.80;17.67;;;;;;;0.04;73.56;97547.59;5050044;28;20033;-71
2022/11/21 04:08:38;;;;;;;40.55;18.88;;;;;;;0.09;74.04;97539.59;5050245;28;20025;-71
2022/11/21 04:11:04;;;;;;;39.50;20.08;;;;;;;0.13;73.90;97543.41;5050072;28;20107;-71
2022/11/21 04:13:29;;;;;;;38.45;18.90;;;;;;;0.17;73.68;97544.56;5049933;28;20124;-71
2022/11/21 04:15:55;;;;;;;42.30;19.70;;;;;;;0.19;73.93;97541.59;5050108;28;20101;-71
2022/11/21 04:18:20;;;;;;;48.72;21.02;;;;;;;0.14;73.89;97528.88;5049678;28;20036;-71
2022/11/21 04:20:46;;;;;;;56.38;23.15;;;;;;;0.13;74.09;97517.25;5050188;28;20155;-71
2022/11/21 04:23:12;;;;;;;51.50;22.00;;;;;;;0.13;73.71;97519.94;5049229;28;20108;-70
2022/11/21 04:25:38;;;;;;;44.75;19.70;;;;;;;0.13;73.60;97525.34;5048825;28;20187;-70
2022/11/21 04:28:04;;;;;;;45.88;20.65;;;;;;;0.12;73.49;97509.44;5050304;28;20521;-71
2022/11/21 04:30:31;;;;;;;48.63;21.67;;;;;;;0.10;73.85;97512.38;5050291;28;20025;-71
2022/11/21 04:32:56;;;;;;;50.85;20.63;;;;;;;0.08;73.48;97511.78;5049905;28;20111;-71
2022/11/21 04:35:23;;;;;;;48.65;21.40;;;;;;;0.07;73.33;97512.06;5050234;28;20484;-71
2022/11/21 04:37:49;;;;;;;50.17;20.77;;;;;;;0.06;73.98;97513.94;5050168;28;20053;-71
2022/11/21 04:40:15;;;;;;;49.33;21.73;;;;;;;0.06;74.04;97515.81;5050256;28;20108;-71
2022/11/21 04:42:42;;;;;;;47.05;20.17;;;;;;;0.06;73.46;97499.66;5049518;28;20460;-71
2022/11/21 04:45:08;;;;;;;46.97;20.25;;;;;;;0.05;73.81;97498.81;5050362;28;20032;-71
2022/11/21 04:47:41;;;;;;;50.03;23.13;;;;;;;0.02;73.77;97491.22;5049394;28;20033;-71
2022/11/21 04:50:07;;;;;;;51.13;23.27;;;;;;;0.01;73.78;97481.50;5049435;28;20052;-71
2022/11/21 04:52:34;;;;;;;46.70;21.83;;;;;;;0.01;73.82;97484.22;5049803;28;20393;-71
2022/11/21 04:54:59;;;;;;;50.97;23.58;;;;;;;0.02;74.33;97476.94;5051275;28;20021;-71
2022/11/21 04:57:27;;;;;;;44.95;21.80;;;;;;;0.03;74.06;97484.78;5049777;28;20028;-71
2022/11/21 04:59:52;;;;;;;39.88;19.25;;;;;;;0.04;74.12;97477.50;5049062;28;20571;-70
2022/11/21 05:02:17;;;;;;;46.78;19.70;;;;;;;0.05;74.46;97469.16;5048398;28;20021;-71
2022/11/21 05:04:43;;;;;;;50.20;25.42;;;;;;;0.08;73.87;97471.34;5049758;28;20009;-71
2022/11/21 05:07:08;;;;;;;50.47;25.45;;;;;;;0.10;74.16;97473.81;5049734;28;20029;-71
2022/11/21 05:09:34;;;;;;;48.08;24.70;;;;;;;0.11;74.13;97470.06;5048762;28;20036;-71
2022/11/21 05:14:43;;;;;;;57.67;28.33;;;;;;;0.11;74.04;97467.34;5049388;28;20400;-71
2022/11/21 05:17:08;;;;;;;54.28;28.58;;;;;;;0.10;74.23;97463.03;5049236;28;20021;-71
2022/11/21 05:19:34;;;;;;;51.35;27.17;;;;;;;0.09;73.54;97462.19;5049423;28;20028;-71
2022/11/21 05:21:59;;;;;;;51.00;25.65;;;;;;;0.07;73.58;97450.84;5049337;28;20416;-70
2022/11/21 05:24:24;;;;;;;45.42;21.08;;;;;;;0.06;73.90;97454.63;5049245;28;20051;-71
2022/11/21 05:26:50;;;;;;;44.72;20.33;;;;;;;0.04;74.18;97458.66;5046873;28;20017;-71
2022/11/21 05:29:15;;;;;;;47.00;24.33;;;;;;;0.03;74.07;97451.63;5049403;28;20021;-71
2022/11/21 05:31:40;;;;;;;43.20;21.77;;;;;;;0.03;74.14;97449.72;5049094;28;20522;-71
2022/11/21 05:34:06;;;;;;;47.55;23.25;;;;;;;0.03;74.21;97448.94;5049203;28;20025;-71
2022/11/21 05:36:31;;;;;;;39.08;20.63;;;;;;;0.01;73.98;97449.16;5049306;28;20032;-71
2022/11/21 05:38:57;;;;;;;48.53;20.58;;;;;;;0.00;74.20;97452.97;5048759;28;20066;-71
2022/11/21 05:41:22;;;;;;;38.80;17.67;;;;;;;0.04;74.47;97454.06;5049031;28;20025;-71
2022/11/21 05:43:48;;;;;;;43.08;20.55;;;;;;;0.06;74.05;97448.44;5048965;28;20036;-71
2022/11/21 05:46:20;;;;;;;45.60;21.90;;;;;;;0.08;73.97;97454.38;5048953;28;20485;-71
2022/11/21 05:48:47;;;;;;;55.72;24.35;;;;;;;0.07;74.02;97458.13;5048982;28;20017;-71
2022/11/21 05:51:13;;;;;;;52.60;24.80;;;;;;;0.07;74.04;97455.44;5048461;28;20040;-71
2022/11/21 05:53:39;;;;;;;49.75;23.85;;;;;;;0.09;73.92;97464.09;5051583;28;20036;-71
2022/11/21 05:56:10;;;;;;;50.95;22.58;;;;;;;0.07;74.17;97455.44;5049100;28;20044;-70
2022/11/21 05:58:36;;;;;;;47.33;20.85;;;;;;;0.04;73.99;97459.44;5049745;28;20025;-72
2022/11/21 06:01:03;;;;;;;43.00;20.00;;;;;;;-0.01;74.11;97459.41;5047607;28;20365;-71
2022/11/21 06:03:32;;;;;;;41.22;18.80;;;;;;;-0.04;74.28;97455.31;5049115;28;20036;-71
2022/11/21 06:05:59;;;;;;;43.92;20.60;;;;;;;-0.08;74.11;97454.19;5050123;28;20025;-70
2022/11/21 06:08:30;;;;;;;44.15;19.85;;;;;;;-0.08;73.81;97462.28;5051399;28;20029;-71
2022/11/21 06:10:56;;;;;;;44.40;21.20;;;;;;;-0.08;74.03;97456.09;5052226;28;20048;-71
2022/11/21 06:13:21;;;;;;;45.45;21.80;;;;;;;-0.06;74.18;97452.06;5052817;28;20029;-71
2022/11/21 06:15:48;;;;;;;52.90;23.17;;;;;;;-0.05;74.38;97455.59;5051606;28;20070;-70
2022/11/21 06:18:14;;;;;;;53.88;23.15;;;;;;;-0.05;74.21;97450.19;5051772;28;20028;-72
2022/11/21 06:20:39;;;;;;;50.28;23.38;;;;;;;-0.02;74.15;97447.81;5053612;28;20078;-71
2022/11/21 06:23:05;;;;;;;47.90;20.23;;;;;;;0.02;74.51;97450.00;5051930;28;20037;-71
2022/11/21 06:25:30;;;;;;;44.72;20.60;;;;;;;0.06;74.12;97443.03;5051605;28;20036;-71
2022/11/21 06:27:58;;;;;;;44.53;19.58;;;;;;;0.08;74.32;97439.00;5052059;28;20371;-71
2022/11/21 06:30:23;;;;;;;41.97;19.98;;;;;;;0.13;74.64;97440.97;5055268;28;20521;-71
2022/11/21 06:32:49;;;;;;;40.70;19.15;;;;;;;0.18;74.76;97434.78;5052934;28;20041;-71
2022/11/21 06:35:14;;;;;;;40.72;19.25;;;;;;;0.22;74.37;97446.69;5047663;28;20444;-71
2022/11/21 06:37:40;;;;;;;48.03;22.95;;;;;;;0.28;74.58;97435.69;5049699;28;20120;-71
2022/11/21 06:40:05;;;;;;;54.92;25.08;;;;;;;0.34;74.36;97439.28;5053824;28;20070;-71
2022/11/21 06:42:32;;;;;;;60.28;26.52;;;;;;;0.41;74.45;97420.97;5052687;28;20027;-71
2022/11/21 06:44:58;;;;;;;54.90;24.70;;;;;;;0.48;74.34;97433.44;5051127;28;20063;-71
2022/11/21 06:47:23;;;;;;;56.60;26.73;;;;;;;0.53;74.49;97428.94;5051593;28;20028;-71
2022/11/21 06:49:48;;;;;;;45.95;22.05;;;;;;;0.56;74.61;97433.81;5052182;28;20055;-71
2022/11/21 06:52:14;;;;;;;54.33;24.98;;;;;;;0.59;74.58;97430.63;5052401;28;20123;-71
2022/11/21 06:54:39;;;;;;;51.50;24.92;;;;;;;0.65;74.49;97426.06;5053139;28;20047;-71
2022/11/21 06:57:05;;;;;;;51.47;24.30;;;;;;;0.72;74.42;97431.25;5055751;28;20079;-71
2022/11/21 06:59:30;;;;;;;56.53;27.05;;;;;;;0.76;74.54;97424.25;5050320;28;20114;-71
2022/11/21 07:01:55;;;;;;;52.97;26.20;;;;;;;0.83;74.59;97427.56;5052468;28;20082;-71
2022/11/21 07:04:21;;;;;;;53.95;25.95;;;;;;;0.89;75.15;97431.09;5052004;28;20059;-72
2022/11/21 07:06:46;;;;;;;50.47;25.65;;;;;;;0.91;74.68;97426.25;5053282;28;20428;-71
2022/11/21 07:09:11;;;;;;;49.63;27.05;;;;;;;0.96;74.93;97422.78;5049676;28;20028;-70
2022/11/21 07:11:37;;;;;;;49.50;25.15;;;;;;;1.02;74.56;97427.13;5052626;28;20094;-71
2022/11/21 07:14:02;;;;;;;54.67;26.38;;;;;;;1.08;75.06;97425.31;5052362;28;20461;-71
2022/11/21 07:16:30;;;;;;;50.92;25.90;;;;;;;1.13;74.59;97420.72;5051794;28;20037;-71
2022/11/21 07:18:56;;;;;;;53.67;27.77;;;;;;;1.19;74.87;97432.41;5050335;28;20040;-72
2022/11/21 07:21:21;;;;;;;52.25;26.63;;;;;;;1.24;74.37;97426.22;5051136;28;20497;-71
2022/11/21 07:23:47;;;;;;;55.70;29.17;;;;;;;1.32;74.37;97420.31;5051548;28;20032;-70
2022/11/21 07:26:12;;;;;;;57.80;29.60;;;;;;;1.34;74.46;97418.97;5052161;28;20056;-70
2022/11/21 07:28:38;;;;;;;64.10;29.13;;;;;;;1.38;74.98;97427.38;5054035;28;20439;-68
2022/11/21 07:31:04;;;;;;;62.72;30.88;;;;;;;1.42;74.40;97420.38;5056874;28;20044;-68
2022/11/21 07:33:29;;;;;;;66.82;32.70;;;;;;;1.45;74.77;97419.84;5050911;28;20044;-71
2022/11/21 07:35:58;;;;;;;85.78;37.00;;;;;;;1.48;74.88;97424.72;5051683;28;20021;-70
2022/11/21 07:38:25;;;;;;;73.60;35.60;;;;;;;1.55;74.41;97429.06;5055795;28;20033;-71
2022/11/21 07:40:51;;;;;;;72.93;35.67;;;;;;;1.57;74.26;97422.34;5053373;28;20025;-71
2022/11/21 07:43:16;;;;;;;60.47;30.95;;;;;;;1.59;74.21;97424.78;5049612;28;20685;-71
2022/11/21 07:45:42;;;;;;;49.15;25.77;;;;;;;1.60;74.57;97429.09;5052803;28;20029;-72
2022/11/21 07:48:09;;;;;;;42.13;22.73;;;;;;;1.59;74.40;97414.78;5052573;28;20037;-68
2022/11/21 07:50:35;;;;;;;41.97;22.00;;;;;;;1.60;74.19;97415.59;5053090;28;20056;-69
2022/11/21 07:53:05;;;;;;;39.78;22.10;;;;;;;1.63;74.81;97417.75;5050805;28;20435;-68
2022/11/21 07:55:31;;;;;;;40.25;21.67;;;;;;;1.67;74.26;97409.94;5047268;28;20086;-68
2022/11/21 07:58:08;;;;;;;38.03;20.58;;;;;;;1.68;74.73;97412.38;5049561;28;20655;-67
2022/11/21 08:00:36;;;;;;;44.35;22.05;;;;;;;1.67;74.25;97402.66;5051823;28;20445;-69
2022/11/21 08:03:03;;;;;;;43.03;21.98;;;;;;;1.64;74.38;97401.28;5049835;28;20075;-70
2022/11/21 08:05:28;;;;;;;42.42;21.73;;;;;;;1.66;74.22;97408.31;5051974;28;20033;-72
2022/11/21 08:07:54;;;;;;;42.05;21.63;;;;;;;1.71;74.28;97409.16;5047045;28;20087;-73
2022/11/21 08:10:19;;;;;;;44.58;22.70;;;;;;;1.73;74.89;97406.16;5051556;28;20579;-74
2022/11/21 08:12:45;;;;;;;39.47;21.92;;;;;;;1.75;74.26;97404.03;5048749;28;20083;-73
2022/11/21 08:15:11;;;;;;;48.60;22.88;;;;;;;1.75;74.60;97396.75;5049105;28;20099;-73
2022/11/21 08:17:37;;;;;;;49.50;25.00;;;;;;;1.71;74.18;97402.91;5049007;28;20346;-71
2022/11/21 08:20:04;;;;;;;50.88;24.42;;;;;;;1.72;74.57;97399.97;5048457;28;20025;-71
2022/11/21 08:22:30;;;;;;;46.67;24.88;;;;;;;1.76;74.79;97406.47;5048700;28;20017;-73
2022/11/21 08:24:55;;;;;;;50.58;27.02;;;;;;;1.80;74.17;97398.63;5050083;28;20080;-73
2022/11/21 08:27:21;;;;;;;55.03;27.10;;;;;;;1.87;74.23;97403.78;5051621;28;20020;-72
2022/11/21 08:29:47;;;;;;;48.22;23.60;;;;;;;1.93;75.17;97406.25;5047944;28;20031;-73
2022/11/21 08:32:13;;;;;;;54.42;26.17;;;;;;;1.97;75.13;97406.53;5048750;28;20017;-73
2022/11/21 08:34:40;;;;;;;53.00;25.63;;;;;;;2.03;74.50;97394.66;5048274;28;20083;-73
2022/11/21 08:37:05;;;;;;;53.38;25.92;;;;;;;2.06;74.34;97396.00;5049439;28;20036;-73
2022/11/21 08:39:31;;;;;;;52.67;26.00;;;;;;;2.08;74.96;97397.38;5050282;28;20033;-72
2022/11/21 08:42:02;;;;;;;51.42;26.52;;;;;;;2.16;74.71;97401.44;5049846;28;20528;-72
2022/11/21 08:44:32;;;;;;;52.25;24.75;;;;;;;2.21;74.73;97401.44;5048380;28;20472;-71
2022/11/21 08:46:57;;;;;;;48.83;24.77;;;;;;;2.29;75.00;97393.88;5048094;28;20025;-72
2022/11/21 08:49:23;;;;;;;47.17;23.98;;;;;;;2.35;75.24;97399.03;5049462;28;20097;-71
2022/11/21 08:51:48;;;;;;;49.20;24.83;;;;;;;2.44;74.79;97398.50;5051364;28;20116;-73
2022/11/21 08:54:17;;;;;;;48.95;24.73;;;;;;;2.48;74.74;97396.88;5046198;28;20473;-73
2022/11/21 08:56:43;;;;;;;44.13;22.73;;;;;;;2.55;74.94;97396.59;5045705;28;20032;-73
2022/11/21 08:59:09;;;;;;;41.65;21.58;;;;;;;2.62;74.96;97395.28;5046444;28;20021;-73
2022/11/21 09:01:34;;;;;;;46.80;22.30;;;;;;;2.70;75.04;97398.50;5045848;28;20025;-73
2022/11/21 09:04:00;;;;;;;49.47;24.92;;;;;;;2.77;75.00;97389.03;5050341;28;20094;-72
2022/11/21 09:06:25;;;;;;;54.15;27.60;;;;;;;2.85;75.01;97384.16;5050496;28;20454;-72
2022/11/21 09:08:50;;;;;;;52.88;28.13;;;;;;;2.89;74.54;97385.22;5047152;28;20028;-72
2022/11/21 09:11:16;;;;;;;48.17;25.63;;;;;;;2.94;74.91;97396.88;5045810;28;20033;-72
2022/11/21 09:13:41;;;;;;;43.08;22.50;;;;;;;2.97;75.27;97387.38;5045789;28;20286;-73
2022/11/21 09:18:54;;;;;;;41.78;22.73;;;;;;;3.00;75.09;97378.72;5048039;28;20047;-73
2022/11/21 09:21:20;;;;;;;44.05;23.27;;;;;;;3.04;74.56;97377.09;5050073;28;20111;-72
2022/11/21 09:23:46;;;;;;;41.63;21.25;;;;;;;3.09;75.25;97374.38;5045457;28;20051;-72
2022/11/21 09:26:11;;;;;;;37.80;20.60;;;;;;;3.16;75.03;97384.13;5047609;28;20033;-72
2022/11/21 09:28:37;;;;;;;35.97;19.10;;;;;;;3.22;75.02;97378.41;5045672;28;20159;-73
2022/11/21 09:31:04;;;;;;;38.28;20.10;;;;;;;3.30;75.08;97379.72;5043406;28;20044;-73
2022/11/21 09:33:30;;;;;;;35.72;20.10;;;;;;;3.40;75.17;97370.78;5045803;28;20040;-72
2022/11/21 09:35:59;;;;;;;38.78;18.67;;;;;;;3.50;75.76;97369.91;5045136;28;20033;-71
2022/11/21 09:38:28;;;;;;;35.93;16.90;;;;;;;3.61;75.36;97357.13;5049290;28;20485;-74
2022/11/21 09:44:15;;;;;;;29.40;15.93;;;;;;;3.83;75.51;97357.56;5050207;28;20073;-70
2022/11/21 09:46:45;;;;;;;;;;;;;;;3.94;76.05;97360.22;5050740;28;20040;-73
2022/11/21 09:49:13;;;;;;;25.40;12.80;;;;;;;4.04;75.87;97348.50;5045797;28;19952;-72
2022/11/21 09:51:40;;;;;;;24.10;14.85;;;;;;;4.10;75.73;97342.75;5044283;28;20104;-73
2022/11/21 09:54:16;;;;;;;26.80;14.38;;;;;;;4.18;75.75;97333.19;5048868;28;20059;-72
2022/11/21 09:56:42;;;;;;;28.98;14.95;;;;;;;4.27;75.50;97344.28;5050466;28;20028;-73
2022/11/21 09:59:10;;;;;;;28.30;13.10;;;;;;;4.37;75.73;97346.13;5050990;28;20389;-72
2022/11/21 10:01:36;;;;;;;24.17;13.35;;;;;;;4.49;75.77;97337.59;5046569;28;20489;-72
2022/11/21 10:04:02;;;;;;;27.23;14.05;;;;;;;4.58;75.73;97347.56;5046026;28;20033;-73
2022/11/21 10:06:30;;;;;;;22.27;12.15;;;;;;;4.70;75.73;97338.22;5048575;28;20126;-72
2022/11/21 10:09:11;;;;;;;29.02;15.32;;;;;;;4.77;74.96;97336.78;5048267;28;20029;-73
2022/11/21 10:14:52;;;;;;;21.75;12.18;;;;;;;4.94;74.40;97338.28;5045305;28;20559;-73
2022/11/21 10:17:34;;;;;;;23.77;12.13;;;;;;;5.00;75.01;97347.19;5048484;28;20029;-72
2022/11/21 10:20:13;;;;;;;24.30;12.52;;;;;;;5.02;74.38;97340.38;5047982;28;20951;-72
2022/11/21 10:23:09;;;;;;;19.13;10.27;;;;;;;5.05;74.44;97341.69;5048093;28;20520;-72
2022/11/21 10:25:38;;;;;;;20.70;10.25;;;;;;;5.11;74.23;97342.44;5048070;28;20067;-72
2022/11/21 10:28:43;;;;;;;25.70;10.80;;;;;;;5.15;74.25;97344.31;5047831;28;20100;-72
2022/11/21 10:31:12;;;;;;;24.33;11.55;;;;;;;5.22;74.11;97349.41;5048433;28;20033;-73
2022/11/21 10:33:39;;;;;;;21.27;11.13;;;;;;;5.25;74.14;97346.09;5047501;28;20381;-72
2022/11/21 10:36:38;;;;;;;27.92;12.25;;;;;;;5.29;74.33;97347.16;5048058;28;20017;-72
2022/11/21 10:39:17;;;;;;;22.63;11.45;;;;;;;5.31;73.82;97341.41;5047808;28;20047;-72
2022/11/21 10:42:00;;;;;;;24.13;10.80;;;;;;;5.33;74.28;97340.03;5048215;28;20041;-74
2022/11/21 10:47:13;;;;;;;16.70;9.32;;;;;;;5.36;73.40;97338.63;5049554;28;20040;-71
2022/11/21 10:49:39;;;;;;;16.73;9.73;;;;;;;5.36;73.28;97338.63;5048315;28;20053;-71
2022/11/21 10:52:04;;;;;;;15.80;8.02;;;;;;;5.32;73.04;97338.41;5049278;28;20051;-70
2022/11/21 10:54:32;;;;;;;15.18;9.48;;;;;;;5.28;73.44;97345.53;5049210;28;20052;-70
2022/11/21 10:57:17;;;;;;;13.88;8.07;;;;;;;5.30;73.60;97335.19;5049783;28;20040;-70
2022/11/21 11:00:33;;;;;;;16.27;10.27;;;;;;;5.34;73.20;97341.66;5052424;28;20478;-69
2022/11/21 11:03:03;;;;;;;15.32;7.65;;;;;;;5.37;72.98;97337.53;5034437;28;20405;-70
2022/11/21 11:05:32;;;;;;;13.48;8.88;;;;;;;5.36;73.32;97334.03;5052598;28;20029;-70
2022/11/21 11:08:08;;;;;;;19.85;10.88;;;;;;;5.41;73.44;97329.63;5052260;28;20021;-72
2022/11/21 11:10:38;;;;;;;28.00;19.17;;;;;;;5.44;73.24;97323.63;5053098;28;20073;-72
2022/11/21 11:13:33;;;;;;;33.35;18.23;;;;;;;5.45;73.31;97325.22;5052866;28;20025;-72
2022/11/21 11:16:10;;;;;;;30.23;19.33;;;;;;;5.48;72.87;97325.44;5052538;28;20454;-71
2022/11/21 11:19:07;;;;;;;17.65;10.90;;;;;;;5.50;73.03;97327.91;5050147;28;20033;-71
2022/11/21 11:21:39;;;;;;;12.77;7.78;;;;;;;5.50;72.52;97325.19;5048095;28;20039;-71
2022/11/21 11:24:26;;;;;;;15.98;9.00;;;;;;;5.48;72.54;97332.81;5051480;28;20112;-71
2022/11/21 11:26:57;;;;;;;15.52;8.57;;;;;;;5.49;71.99;97332.50;5050816;28;20017;-71
2022/11/21 11:29:47;;;;;;;13.27;7.40;;;;;;;5.51;72.69;97327.59;5051152;28;20109;-71
2022/11/21 11:32:19;;;;;;;14.52;8.27;;;;;;;5.58;72.61;97327.22;5050409;28;20029;-71
2022/11/21 11:35:05;;;;;;;13.30;7.50;;;;;;;5.64;72.91;97339.66;5051741;28;20025;-67
2022/11/21 11:37:52;;;;;;;12.07;7.18;;;;;;;5.69;72.42;97336.09;5051196;28;20096;-70
2022/11/21 11:40:23;;;;;;;15.13;8.20;;;;;;;5.75;72.04;97340.34;5051051;28;20029;-70
2022/11/21 11:49:28;;;;;;;12.43;7.18;;;;;;;5.88;71.99;97343.44;5050785;28;20059;-71